sensor_id;sensor_type;location;lat;lon;timestamp;P1;durP1;ratioP1;P2;durP2;ratioP2
22284;SDS011;11311;52.192;20.900;2023-03-29T00:05:43;10.80;;;7.28;;
22284;SDS011;11311;52.192;20.900;2023-03-29T00:08:12;13.55;;;7.80;;
22284;SDS011;11311;52.192;20.900;2023-03-29T00:10:41;12.35;;;7.60;;
22284;SDS011;11311;52.192;20.900;2023-03-29T00:13:09;17.00;;;7.75;;
22284;SDS011;11311;52.192;20.900;2023-03-29T00:15:39;12.15;;;7.10;;
22284;SDS011;11311;52.192;20.900;2023-03-29T00:18:08;15.75;;;7.40;;
22284;SDS011;11311;52.192;20.900;2023-03-29T00:20:37;11.60;;;7.60;;
22284;SDS011;11311;52.192;20.900;2023-03-29T00:23:07;15.35;;;8.25;;
22284;SDS011;11311;52.192;20.900;2023-03-29T00:25:36;15.82;;;7.80;;
22284;SDS011;11311;52.192;20.900;2023-03-29T00:28:05;11.75;;;7.10;;
22284;SDS011;11311;52.192;20.900;2023-03-29T00:30:34;14.90;;;9.23;;
22284;SDS011;11311;52.192;20.900;2023-03-29T00:33:03;15.23;;;8.98;;
22284;SDS011;11311;52.192;20.900;2023-03-29T00:35:32;12.35;;;7.40;;
22284;SDS011;11311;52.192;20.900;2023-03-29T00:38:00;14.38;;;8.15;;
22284;SDS011;11311;52.192;20.900;2023-03-29T00:40:33;14.63;;;7.32;;
22284;SDS011;11311;52.192;20.900;2023-03-29T00:43:04;9.95;;;7.35;;
22284;SDS011;11311;52.192;20.900;2023-03-29T00:45:33;16.42;;;7.55;;
22284;SDS011;11311;52.192;20.900;2023-03-29T00:48:03;11.60;;;7.90;;
22284;SDS011;11311;52.192;20.900;2023-03-29T00:50:34;14.00;;;7.93;;
22284;SDS011;11311;52.192;20.900;2023-03-29T00:53:06;13.75;;;6.97;;
22284;SDS011;11311;52.192;20.900;2023-03-29T00:55:42;16.83;;;7.22;;
22284;SDS011;11311;52.192;20.900;2023-03-29T00:58:13;11.65;;;6.88;;
22284;SDS011;11311;52.192;20.900;2023-03-29T01:00:44;15.18;;;7.63;;
22284;SDS011;11311;52.192;20.900;2023-03-29T01:03:19;12.60;;;6.97;;
22284;SDS011;11311;52.192;20.900;2023-03-29T01:05:52;21.70;;;8.07;;
22284;SDS011;11311;52.192;20.900;2023-03-29T01:08:24;11.75;;;6.50;;
22284;SDS011;11311;52.192;20.900;2023-03-29T01:10:57;14.70;;;7.82;;
22284;SDS011;11311;52.192;20.900;2023-03-29T01:13:32;13.32;;;6.43;;
22284;SDS011;11311;52.192;20.900;2023-03-29T01:16:06;12.82;;;7.13;;
22284;SDS011;11311;52.192;20.900;2023-03-29T01:18:36;16.80;;;8.25;;
22284;SDS011;11311;52.192;20.900;2023-03-29T01:21:11;17.98;;;7.30;;
22284;SDS011;11311;52.192;20.900;2023-03-29T01:23:49;13.15;;;6.93;;
22284;SDS011;11311;52.192;20.900;2023-03-29T01:26:41;10.90;;;6.10;;
22284;SDS011;11311;52.192;20.900;2023-03-29T01:29:19;13.13;;;7.10;;
22284;SDS011;11311;52.192;20.900;2023-03-29T01:31:53;18.80;;;8.18;;
22284;SDS011;11311;52.192;20.900;2023-03-29T01:34:26;12.82;;;6.72;;
22284;SDS011;11311;52.192;20.900;2023-03-29T01:37:01;14.70;;;7.80;;
22284;SDS011;11311;52.192;20.900;2023-03-29T01:39:33;14.25;;;8.13;;
22284;SDS011;11311;52.192;20.900;2023-03-29T01:42:07;11.68;;;7.15;;
22284;SDS011;11311;52.192;20.900;2023-03-29T01:44:44;13.73;;;8.88;;
22284;SDS011;11311;52.192;20.900;2023-03-29T01:47:17;15.45;;;7.13;;
22284;SDS011;11311;52.192;20.900;2023-03-29T01:49:49;17.08;;;7.93;;
22284;SDS011;11311;52.192;20.900;2023-03-29T01:52:26;15.57;;;7.88;;
22284;SDS011;11311;52.192;20.900;2023-03-29T01:54:59;13.23;;;7.75;;
22284;SDS011;11311;52.192;20.900;2023-03-29T01:57:31;16.88;;;7.43;;
22284;SDS011;11311;52.192;20.900;2023-03-29T02:00:03;9.90;;;6.53;;
22284;SDS011;11311;52.192;20.900;2023-03-29T02:02:37;10.43;;;7.30;;
22284;SDS011;11311;52.192;20.900;2023-03-29T02:05:08;15.25;;;7.65;;
22284;SDS011;11311;52.192;20.900;2023-03-29T02:07:38;15.60;;;7.68;;
22284;SDS011;11311;52.192;20.900;2023-03-29T02:10:08;14.95;;;7.68;;
22284;SDS011;11311;52.192;20.900;2023-03-29T02:12:37;15.35;;;7.78;;
22284;SDS011;11311;52.192;20.900;2023-03-29T02:15:10;16.52;;;8.05;;
22284;SDS011;11311;52.192;20.900;2023-03-29T02:17:40;11.95;;;7.05;;
22284;SDS011;11311;52.192;20.900;2023-03-29T02:20:11;12.30;;;7.75;;
22284;SDS011;11311;52.192;20.900;2023-03-29T02:22:45;16.02;;;8.38;;
22284;SDS011;11311;52.192;20.900;2023-03-29T02:25:17;12.95;;;7.60;;
22284;SDS011;11311;52.192;20.900;2023-03-29T02:27:48;12.88;;;7.82;;
22284;SDS011;11311;52.192;20.900;2023-03-29T02:30:19;16.17;;;8.65;;
22284;SDS011;11311;52.192;20.900;2023-03-29T02:32:51;13.60;;;7.60;;
22284;SDS011;11311;52.192;20.900;2023-03-29T02:35:26;14.45;;;7.75;;
22284;SDS011;11311;52.192;20.900;2023-03-29T02:38:01;11.52;;;7.05;;
22284;SDS011;11311;52.192;20.900;2023-03-29T02:40:31;14.88;;;8.18;;
22284;SDS011;11311;52.192;20.900;2023-03-29T02:43:03;13.32;;;7.82;;
22284;SDS011;11311;52.192;20.900;2023-03-29T02:45:36;10.00;;;7.10;;
22284;SDS011;11311;52.192;20.900;2023-03-29T02:48:07;17.88;;;8.27;;
22284;SDS011;11311;52.192;20.900;2023-03-29T02:50:38;14.45;;;7.63;;
22284;SDS011;11311;52.192;20.900;2023-03-29T02:53:08;13.43;;;7.82;;
22284;SDS011;11311;52.192;20.900;2023-03-29T02:55:41;12.35;;;8.13;;
22284;SDS011;11311;52.192;20.900;2023-03-29T02:58:13;16.30;;;8.55;;
22284;SDS011;11311;52.192;20.900;2023-03-29T03:00:44;13.88;;;7.55;;
22284;SDS011;11311;52.192;20.900;2023-03-29T03:03:14;14.48;;;8.13;;
22284;SDS011;11311;52.192;20.900;2023-03-29T03:05:47;13.32;;;8.20;;
22284;SDS011;11311;52.192;20.900;2023-03-29T03:10:46;16.45;;;8.68;;
22284;SDS011;11311;52.192;20.900;2023-03-29T03:13:16;13.25;;;8.48;;
22284;SDS011;11311;52.192;20.900;2023-03-29T03:15:46;17.42;;;9.50;;
22284;SDS011;11311;52.192;20.900;2023-03-29T03:18:15;12.00;;;7.93;;
22284;SDS011;11311;52.192;20.900;2023-03-29T03:20:53;14.65;;;8.73;;
22284;SDS011;11311;52.192;20.900;2023-03-29T03:23:22;13.57;;;8.75;;
22284;SDS011;11311;52.192;20.900;2023-03-29T03:25:51;19.40;;;8.68;;
22284;SDS011;11311;52.192;20.900;2023-03-29T03:28:20;13.88;;;8.60;;
22284;SDS011;11311;52.192;20.900;2023-03-29T03:30:53;13.85;;;7.32;;
22284;SDS011;11311;52.192;20.900;2023-03-29T03:36:10;22.05;;;10.38;;
22284;SDS011;11311;52.192;20.900;2023-03-29T03:38:41;18.13;;;8.85;;
22284;SDS011;11311;52.192;20.900;2023-03-29T03:41:11;26.35;;;10.77;;
22284;SDS011;11311;52.192;20.900;2023-03-29T03:43:40;13.57;;;8.27;;
22284;SDS011;11311;52.192;20.900;2023-03-29T03:46:13;17.00;;;9.90;;
22284;SDS011;11311;52.192;20.900;2023-03-29T03:48:43;15.80;;;8.77;;
22284;SDS011;11311;52.192;20.900;2023-03-29T03:51:19;19.48;;;10.35;;
22284;SDS011;11311;52.192;20.900;2023-03-29T03:53:49;17.05;;;8.98;;
22284;SDS011;11311;52.192;20.900;2023-03-29T03:56:33;22.30;;;10.25;;
22284;SDS011;11311;52.192;20.900;2023-03-29T03:59:07;19.65;;;9.80;;
22284;SDS011;11311;52.192;20.900;2023-03-29T04:01:47;17.23;;;8.68;;
22284;SDS011;11311;52.192;20.900;2023-03-29T04:04:19;17.45;;;9.23;;
22284;SDS011;11311;52.192;20.900;2023-03-29T04:07:00;13.07;;;8.35;;
22284;SDS011;11311;52.192;20.900;2023-03-29T04:09:30;19.23;;;10.40;;
22284;SDS011;11311;52.192;20.900;2023-03-29T04:12:22;15.70;;;8.55;;
22284;SDS011;11311;52.192;20.900;2023-03-29T04:14:52;15.25;;;9.10;;
22284;SDS011;11311;52.192;20.900;2023-03-29T04:17:24;13.13;;;9.23;;
22284;SDS011;11311;52.192;20.900;2023-03-29T04:20:19;16.30;;;9.45;;
22284;SDS011;11311;52.192;20.900;2023-03-29T04:22:48;16.88;;;9.60;;
22284;SDS011;11311;52.192;20.900;2023-03-29T04:25:17;16.42;;;9.35;;
22284;SDS011;11311;52.192;20.900;2023-03-29T04:27:47;18.65;;;9.05;;
22284;SDS011;11311;52.192;20.900;2023-03-29T04:30:32;21.92;;;8.20;;
22284;SDS011;11311;52.192;20.900;2023-03-29T04:33:08;17.73;;;7.93;;
22284;SDS011;11311;52.192;20.900;2023-03-29T04:35:40;14.07;;;8.55;;
22284;SDS011;11311;52.192;20.900;2023-03-29T04:38:13;19.95;;;10.18;;
22284;SDS011;11311;52.192;20.900;2023-03-29T04:40:44;13.63;;;9.23;;
22284;SDS011;11311;52.192;20.900;2023-03-29T04:43:22;15.60;;;8.70;;
22284;SDS011;11311;52.192;20.900;2023-03-29T04:46:07;15.38;;;8.45;;
22284;SDS011;11311;52.192;20.900;2023-03-29T04:48:52;19.58;;;9.30;;
22284;SDS011;11311;52.192;20.900;2023-03-29T04:51:30;17.70;;;10.07;;
22284;SDS011;11311;52.192;20.900;2023-03-29T04:53:59;13.90;;;9.30;;
22284;SDS011;11311;52.192;20.900;2023-03-29T04:56:30;17.50;;;9.70;;
22284;SDS011;11311;52.192;20.900;2023-03-29T04:59:28;16.63;;;8.75;;
22284;SDS011;11311;52.192;20.900;2023-03-29T05:01:57;15.13;;;7.18;;
22284;SDS011;11311;52.192;20.900;2023-03-29T05:04:28;16.48;;;9.20;;
22284;SDS011;11311;52.192;20.900;2023-03-29T05:07:06;18.97;;;9.07;;
22284;SDS011;11311;52.192;20.900;2023-03-29T05:09:35;17.17;;;9.85;;
22284;SDS011;11311;52.192;20.900;2023-03-29T05:12:04;15.48;;;7.88;;
22284;SDS011;11311;52.192;20.900;2023-03-29T05:14:45;18.92;;;9.73;;
22284;SDS011;11311;52.192;20.900;2023-03-29T05:17:14;14.10;;;8.00;;
22284;SDS011;11311;52.192;20.900;2023-03-29T05:19:44;11.93;;;7.28;;
22284;SDS011;11311;52.192;20.900;2023-03-29T05:22:14;15.82;;;8.63;;
22284;SDS011;11311;52.192;20.900;2023-03-29T05:24:44;14.18;;;8.35;;
22284;SDS011;11311;52.192;20.900;2023-03-29T05:27:16;24.63;;;10.30;;
22284;SDS011;11311;52.192;20.900;2023-03-29T05:29:56;15.48;;;8.52;;
22284;SDS011;11311;52.192;20.900;2023-03-29T05:32:36;14.40;;;8.75;;
22284;SDS011;11311;52.192;20.900;2023-03-29T05:35:08;16.23;;;8.45;;
22284;SDS011;11311;52.192;20.900;2023-03-29T05:37:37;17.05;;;10.07;;
22284;SDS011;11311;52.192;20.900;2023-03-29T05:40:07;14.40;;;9.45;;
22284;SDS011;11311;52.192;20.900;2023-03-29T05:42:53;18.05;;;8.93;;
22284;SDS011;11311;52.192;20.900;2023-03-29T05:45:22;12.77;;;6.70;;
22284;SDS011;11311;52.192;20.900;2023-03-29T05:47:55;16.15;;;8.70;;
22284;SDS011;11311;52.192;20.900;2023-03-29T05:50:25;24.47;;;9.87;;
22284;SDS011;11311;52.192;20.900;2023-03-29T05:52:55;14.32;;;10.60;;
22284;SDS011;11311;52.192;20.900;2023-03-29T05:55:24;15.48;;;10.23;;
22284;SDS011;11311;52.192;20.900;2023-03-29T05:57:53;11.93;;;8.18;;
22284;SDS011;11311;52.192;20.900;2023-03-29T06:00:26;16.88;;;9.05;;
22284;SDS011;11311;52.192;20.900;2023-03-29T06:03:13;19.90;;;9.98;;
22284;SDS011;11311;52.192;20.900;2023-03-29T06:05:53;17.67;;;9.18;;
22284;SDS011;11311;52.192;20.900;2023-03-29T06:08:24;14.55;;;9.43;;
22284;SDS011;11311;52.192;20.900;2023-03-29T06:11:13;16.42;;;8.15;;
22284;SDS011;11311;52.192;20.900;2023-03-29T06:14:14;13.57;;;8.07;;
22284;SDS011;11311;52.192;20.900;2023-03-29T06:16:51;15.02;;;8.23;;
22284;SDS011;11311;52.192;20.900;2023-03-29T06:19:21;13.57;;;8.93;;
22284;SDS011;11311;52.192;20.900;2023-03-29T06:21:51;13.63;;;8.43;;
22284;SDS011;11311;52.192;20.900;2023-03-29T06:24:24;14.48;;;7.88;;
22284;SDS011;11311;52.192;20.900;2023-03-29T06:27:00;10.55;;;7.65;;
22284;SDS011;11311;52.192;20.900;2023-03-29T06:29:29;22.45;;;8.68;;
22284;SDS011;11311;52.192;20.900;2023-03-29T06:31:59;14.18;;;8.60;;
22284;SDS011;11311;52.192;20.900;2023-03-29T06:34:45;18.70;;;8.10;;
22284;SDS011;11311;52.192;20.900;2023-03-29T06:37:23;18.55;;;9.23;;
22284;SDS011;11311;52.192;20.900;2023-03-29T06:40:01;15.45;;;9.10;;
22284;SDS011;11311;52.192;20.900;2023-03-29T06:42:42;22.20;;;8.75;;
22284;SDS011;11311;52.192;20.900;2023-03-29T06:45:37;12.60;;;8.40;;
22284;SDS011;11311;52.192;20.900;2023-03-29T06:48:16;15.70;;;8.55;;
22284;SDS011;11311;52.192;20.900;2023-03-29T06:50:46;11.80;;;7.78;;
22284;SDS011;11311;52.192;20.900;2023-03-29T06:53:17;12.07;;;8.13;;
22284;SDS011;11311;52.192;20.900;2023-03-29T06:55:53;13.35;;;7.20;;
22284;SDS011;11311;52.192;20.900;2023-03-29T06:58:39;12.30;;;7.78;;
22284;SDS011;11311;52.192;20.900;2023-03-29T07:01:25;14.98;;;7.80;;
22284;SDS011;11311;52.192;20.900;2023-03-29T07:04:02;11.77;;;8.02;;
22284;SDS011;11311;52.192;20.900;2023-03-29T07:06:53;16.45;;;8.38;;
22284;SDS011;11311;52.192;20.900;2023-03-29T07:09:33;18.42;;;8.05;;
22284;SDS011;11311;52.192;20.900;2023-03-29T07:12:24;9.25;;;6.88;;
22284;SDS011;11311;52.192;20.900;2023-03-29T07:14:58;10.95;;;6.30;;
22284;SDS011;11311;52.192;20.900;2023-03-29T07:17:47;14.25;;;6.10;;
22284;SDS011;11311;52.192;20.900;2023-03-29T07:20:16;15.23;;;5.72;;
22284;SDS011;11311;52.192;20.900;2023-03-29T07:22:48;11.50;;;6.35;;
22284;SDS011;11311;52.192;20.900;2023-03-29T07:25:22;8.73;;;5.18;;
22284;SDS011;11311;52.192;20.900;2023-03-29T07:27:52;9.32;;;6.20;;
22284;SDS011;11311;52.192;20.900;2023-03-29T07:30:22;12.52;;;6.90;;
22284;SDS011;11311;52.192;20.900;2023-03-29T07:33:09;12.05;;;5.43;;
22284;SDS011;11311;52.192;20.900;2023-03-29T07:35:45;9.13;;;5.40;;
22284;SDS011;11311;52.192;20.900;2023-03-29T07:38:15;12.50;;;6.63;;
22284;SDS011;11311;52.192;20.900;2023-03-29T07:40:49;10.52;;;5.40;;
22284;SDS011;11311;52.192;20.900;2023-03-29T07:43:46;10.88;;;5.28;;
22284;SDS011;11311;52.192;20.900;2023-03-29T07:46:22;12.73;;;5.20;;
22284;SDS011;11311;52.192;20.900;2023-03-29T07:48:51;10.65;;;6.13;;
22284;SDS011;11311;52.192;20.900;2023-03-29T07:51:23;11.18;;;5.60;;
22284;SDS011;11311;52.192;20.900;2023-03-29T07:54:02;6.45;;;4.93;;
22284;SDS011;11311;52.192;20.900;2023-03-29T07:56:53;10.25;;;5.53;;
22284;SDS011;11311;52.192;20.900;2023-03-29T07:59:33;9.07;;;5.45;;
22284;SDS011;11311;52.192;20.900;2023-03-29T08:02:08;8.70;;;4.30;;
22284;SDS011;11311;52.192;20.900;2023-03-29T08:04:40;9.95;;;6.05;;
22284;SDS011;11311;52.192;20.900;2023-03-29T08:07:15;13.55;;;5.57;;
22284;SDS011;11311;52.192;20.900;2023-03-29T08:09:55;13.63;;;5.93;;
22284;SDS011;11311;52.192;20.900;2023-03-29T08:12:45;11.88;;;6.15;;
22284;SDS011;11311;52.192;20.900;2023-03-29T08:15:16;8.70;;;5.68;;
22284;SDS011;11311;52.192;20.900;2023-03-29T08:17:46;10.95;;;4.72;;
22284;SDS011;11311;52.192;20.900;2023-03-29T08:20:15;8.73;;;4.40;;
22284;SDS011;11311;52.192;20.900;2023-03-29T08:22:46;10.88;;;4.30;;
22284;SDS011;11311;52.192;20.900;2023-03-29T08:25:44;7.35;;;4.22;;
22284;SDS011;11311;52.192;20.900;2023-03-29T08:28:16;6.80;;;3.97;;
22284;SDS011;11311;52.192;20.900;2023-03-29T08:30:49;11.27;;;3.97;;
22284;SDS011;11311;52.192;20.900;2023-03-29T08:33:19;8.70;;;5.83;;
22284;SDS011;11311;52.192;20.900;2023-03-29T08:35:56;6.18;;;3.20;;
22284;SDS011;11311;52.192;20.900;2023-03-29T08:38:30;5.10;;;3.75;;
22284;SDS011;11311;52.192;20.900;2023-03-29T08:40:59;6.47;;;3.53;;
22284;SDS011;11311;52.192;20.900;2023-03-29T08:43:38;5.22;;;3.28;;
22284;SDS011;11311;52.192;20.900;2023-03-29T08:46:22;5.93;;;2.90;;
22284;SDS011;11311;52.192;20.900;2023-03-29T08:49:18;5.38;;;3.03;;
22284;SDS011;11311;52.192;20.900;2023-03-29T08:51:50;6.88;;;3.08;;
22284;SDS011;11311;52.192;20.900;2023-03-29T08:54:22;6.38;;;3.38;;
22284;SDS011;11311;52.192;20.900;2023-03-29T08:57:10;8.43;;;3.78;;
22284;SDS011;11311;52.192;20.900;2023-03-29T08:59:50;4.70;;;2.90;;
22284;SDS011;11311;52.192;20.900;2023-03-29T09:02:22;3.58;;;2.80;;
22284;SDS011;11311;52.192;20.900;2023-03-29T09:04:59;6.68;;;3.20;;
22284;SDS011;11311;52.192;20.900;2023-03-29T09:10:10;7.22;;;4.13;;
22284;SDS011;11311;52.192;20.900;2023-03-29T09:12:43;7.25;;;3.90;;
22284;SDS011;11311;52.192;20.900;2023-03-29T09:15:21;4.57;;;2.67;;
22284;SDS011;11311;52.192;20.900;2023-03-29T09:18:04;5.93;;;2.95;;
22284;SDS011;11311;52.192;20.900;2023-03-29T09:20:41;4.43;;;2.85;;
22284;SDS011;11311;52.192;20.900;2023-03-29T09:23:20;4.53;;;2.70;;
22284;SDS011;11311;52.192;20.900;2023-03-29T09:26:15;6.57;;;3.35;;
22284;SDS011;11311;52.192;20.900;2023-03-29T09:29:03;8.38;;;4.13;;
22284;SDS011;11311;52.192;20.900;2023-03-29T09:31:40;4.00;;;3.30;;
22284;SDS011;11311;52.192;20.900;2023-03-29T09:34:12;6.53;;;2.80;;
22284;SDS011;11311;52.192;20.900;2023-03-29T09:36:55;7.45;;;3.35;;
22284;SDS011;11311;52.192;20.900;2023-03-29T09:39:28;6.88;;;2.83;;
22284;SDS011;11311;52.192;20.900;2023-03-29T09:42:06;6.38;;;3.28;;
22284;SDS011;11311;52.192;20.900;2023-03-29T09:44:39;10.13;;;3.65;;
22284;SDS011;11311;52.192;20.900;2023-03-29T09:47:18;7.22;;;3.17;;
22284;SDS011;11311;52.192;20.900;2023-03-29T09:49:51;7.43;;;3.00;;
22284;SDS011;11311;52.192;20.900;2023-03-29T09:52:23;7.60;;;3.33;;
22284;SDS011;11311;52.192;20.900;2023-03-29T09:55:02;4.85;;;2.70;;
22284;SDS011;11311;52.192;20.900;2023-03-29T10:00:21;4.28;;;3.17;;
22284;SDS011;11311;52.192;20.900;2023-03-29T10:02:53;4.65;;;2.60;;
22284;SDS011;11311;52.192;20.900;2023-03-29T10:05:36;3.67;;;2.80;;
22284;SDS011;11311;52.192;20.900;2023-03-29T10:08:16;5.80;;;3.00;;
22284;SDS011;11311;52.192;20.900;2023-03-29T10:10:46;7.18;;;3.38;;
22284;SDS011;11311;52.192;20.900;2023-03-29T10:13:17;5.30;;;3.08;;
22284;SDS011;11311;52.192;20.900;2023-03-29T10:15:56;3.90;;;2.70;;
22284;SDS011;11311;52.192;20.900;2023-03-29T10:18:28;4.40;;;2.80;;
22284;SDS011;11311;52.192;20.900;2023-03-29T10:20:58;6.78;;;3.80;;
22284;SDS011;11311;52.192;20.900;2023-03-29T10:23:30;6.20;;;3.63;;
22284;SDS011;11311;52.192;20.900;2023-03-29T10:25:59;5.78;;;3.15;;
22284;SDS011;11311;52.192;20.900;2023-03-29T10:28:30;6.28;;;2.85;;
22284;SDS011;11311;52.192;20.900;2023-03-29T10:30:59;5.35;;;3.22;;
22284;SDS011;11311;52.192;20.900;2023-03-29T10:33:32;5.43;;;3.03;;
22284;SDS011;11311;52.192;20.900;2023-03-29T10:36:02;7.07;;;3.15;;
22284;SDS011;11311;52.192;20.900;2023-03-29T10:38:34;4.22;;;2.97;;
22284;SDS011;11311;52.192;20.900;2023-03-29T10:41:04;4.10;;;2.80;;
22284;SDS011;11311;52.192;20.900;2023-03-29T10:43:34;4.68;;;2.85;;
22284;SDS011;11311;52.192;20.900;2023-03-29T10:46:05;6.13;;;2.40;;
22284;SDS011;11311;52.192;20.900;2023-03-29T10:48:38;7.00;;;2.40;;
22284;SDS011;11311;52.192;20.900;2023-03-29T10:51:12;3.83;;;2.53;;
22284;SDS011;11311;52.192;20.900;2023-03-29T10:53:42;5.20;;;2.45;;
22284;SDS011;11311;52.192;20.900;2023-03-29T10:56:23;4.00;;;2.58;;
22284;SDS011;11311;52.192;20.900;2023-03-29T10:59:01;6.43;;;2.53;;
22284;SDS011;11311;52.192;20.900;2023-03-29T11:01:39;4.23;;;2.30;;
22284;SDS011;11311;52.192;20.900;2023-03-29T11:04:19;4.15;;;2.95;;
22284;SDS011;11311;52.192;20.900;2023-03-29T11:06:55;4.28;;;2.25;;
22284;SDS011;11311;52.192;20.900;2023-03-29T11:09:36;3.55;;;2.17;;
22284;SDS011;11311;52.192;20.900;2023-03-29T11:12:10;3.38;;;2.67;;
22284;SDS011;11311;52.192;20.900;2023-03-29T11:14:48;4.45;;;3.30;;
22284;SDS011;11311;52.192;20.900;2023-03-29T11:17:26;4.72;;;2.95;;
22284;SDS011;11311;52.192;20.900;2023-03-29T11:20:07;3.38;;;2.40;;
22284;SDS011;11311;52.192;20.900;2023-03-29T11:22:44;4.90;;;3.03;;
22284;SDS011;11311;52.192;20.900;2023-03-29T11:25:22;4.82;;;2.63;;
22284;SDS011;11311;52.192;20.900;2023-03-29T11:27:57;3.55;;;2.45;;
22284;SDS011;11311;52.192;20.900;2023-03-29T11:30:29;4.30;;;2.65;;
22284;SDS011;11311;52.192;20.900;2023-03-29T11:33:03;8.32;;;3.17;;
22284;SDS011;11311;52.192;20.900;2023-03-29T11:35:42;3.97;;;2.60;;
22284;SDS011;11311;52.192;20.900;2023-03-29T11:38:17;4.72;;;2.90;;
22284;SDS011;11311;52.192;20.900;2023-03-29T11:40:52;8.60;;;2.97;;
22284;SDS011;11311;52.192;20.900;2023-03-29T11:43:26;4.05;;;2.90;;
22284;SDS011;11311;52.192;20.900;2023-03-29T11:45:59;3.10;;;2.78;;
22284;SDS011;11311;52.192;20.900;2023-03-29T11:48:31;5.20;;;3.28;;
22284;SDS011;11311;52.192;20.900;2023-03-29T11:51:06;7.25;;;3.17;;
22284;SDS011;11311;52.192;20.900;2023-03-29T11:53:40;6.53;;;3.70;;
22284;SDS011;11311;52.192;20.900;2023-03-29T11:56:18;4.15;;;2.28;;
22284;SDS011;11311;52.192;20.900;2023-03-29T11:58:52;3.15;;;2.55;;
22284;SDS011;11311;52.192;20.900;2023-03-29T12:01:27;7.03;;;2.83;;
22284;SDS011;11311;52.192;20.900;2023-03-29T12:04:00;5.20;;;2.72;;
22284;SDS011;11311;52.192;20.900;2023-03-29T12:06:36;6.68;;;3.08;;
22284;SDS011;11311;52.192;20.900;2023-03-29T12:09:09;5.82;;;2.63;;
22284;SDS011;11311;52.192;20.900;2023-03-29T12:11:44;7.38;;;3.35;;
22284;SDS011;11311;52.192;20.900;2023-03-29T12:14:20;6.35;;;3.30;;
22284;SDS011;11311;52.192;20.900;2023-03-29T12:16:55;5.53;;;3.80;;
22284;SDS011;11311;52.192;20.900;2023-03-29T12:19:28;4.70;;;3.13;;
22284;SDS011;11311;52.192;20.900;2023-03-29T12:22:08;3.58;;;3.15;;
22284;SDS011;11311;52.192;20.900;2023-03-29T12:24:42;4.47;;;3.20;;
22284;SDS011;11311;52.192;20.900;2023-03-29T12:27:19;5.75;;;3.33;;
22284;SDS011;11311;52.192;20.900;2023-03-29T12:29:57;7.25;;;3.75;;
22284;SDS011;11311;52.192;20.900;2023-03-29T12:32:53;5.10;;;3.50;;
22284;SDS011;11311;52.192;20.900;2023-03-29T12:35:53;5.28;;;3.50;;
22284;SDS011;11311;52.192;20.900;2023-03-29T12:39:09;4.80;;;3.17;;
22284;SDS011;11311;52.192;20.900;2023-03-29T12:42:03;5.80;;;2.78;;
22284;SDS011;11311;52.192;20.900;2023-03-29T12:44:55;6.25;;;5.20;;
22284;SDS011;11311;52.192;20.900;2023-03-29T12:47:31;4.65;;;2.70;;
22284;SDS011;11311;52.192;20.900;2023-03-29T12:50:01;3.70;;;2.72;;
22284;SDS011;11311;52.192;20.900;2023-03-29T12:52:31;6.05;;;3.35;;
22284;SDS011;11311;52.192;20.900;2023-03-29T12:55:03;7.88;;;2.95;;
22284;SDS011;11311;52.192;20.900;2023-03-29T12:57:55;7.00;;;3.10;;
22284;SDS011;11311;52.192;20.900;2023-03-29T13:00:30;3.97;;;2.88;;
22284;SDS011;11311;52.192;20.900;2023-03-29T13:03:02;6.97;;;2.70;;
22284;SDS011;11311;52.192;20.900;2023-03-29T13:05:33;3.67;;;2.78;;
22284;SDS011;11311;52.192;20.900;2023-03-29T13:08:10;5.28;;;2.75;;
22284;SDS011;11311;52.192;20.900;2023-03-29T13:10:54;6.00;;;3.05;;
22284;SDS011;11311;52.192;20.900;2023-03-29T13:13:25;4.60;;;2.72;;
22284;SDS011;11311;52.192;20.900;2023-03-29T13:16:06;3.10;;;1.77;;
22284;SDS011;11311;52.192;20.900;2023-03-29T13:18:40;4.00;;;2.50;;
22284;SDS011;11311;52.192;20.900;2023-03-29T13:21:19;3.47;;;2.20;;
22284;SDS011;11311;52.192;20.900;2023-03-29T13:23:55;4.07;;;2.47;;
22284;SDS011;11311;52.192;20.900;2023-03-29T13:26:33;6.82;;;2.70;;
22284;SDS011;11311;52.192;20.900;2023-03-29T13:32:20;3.13;;;2.30;;
22284;SDS011;11311;52.192;20.900;2023-03-29T13:34:56;4.28;;;1.88;;
22284;SDS011;11311;52.192;20.900;2023-03-29T13:37:32;2.92;;;1.90;;
22284;SDS011;11311;52.192;20.900;2023-03-29T13:43:07;2.80;;;1.80;;
22284;SDS011;11311;52.192;20.900;2023-03-29T13:45:38;2.72;;;1.85;;
22284;SDS011;11311;52.192;20.900;2023-03-29T13:48:19;2.35;;;1.98;;
22284;SDS011;11311;52.192;20.900;2023-03-29T13:50:53;2.83;;;2.22;;
22284;SDS011;11311;52.192;20.900;2023-03-29T13:53:25;3.13;;;2.60;;
22284;SDS011;11311;52.192;20.900;2023-03-29T13:55:56;2.40;;;1.80;;
22284;SDS011;11311;52.192;20.900;2023-03-29T13:58:31;2.15;;;1.95;;
22284;SDS011;11311;52.192;20.900;2023-03-29T14:01:06;2.67;;;2.30;;
22284;SDS011;11311;52.192;20.900;2023-03-29T14:03:39;2.38;;;2.03;;
22284;SDS011;11311;52.192;20.900;2023-03-29T14:06:11;3.38;;;2.33;;
22284;SDS011;11311;52.192;20.900;2023-03-29T14:08:42;5.00;;;2.20;;
22284;SDS011;11311;52.192;20.900;2023-03-29T14:11:17;4.35;;;2.05;;
22284;SDS011;11311;52.192;20.900;2023-03-29T14:13:52;2.83;;;1.92;;
22284;SDS011;11311;52.192;20.900;2023-03-29T14:16:22;3.28;;;2.33;;
22284;SDS011;11311;52.192;20.900;2023-03-29T14:18:57;4.15;;;1.88;;
22284;SDS011;11311;52.192;20.900;2023-03-29T14:21:26;4.30;;;2.10;;
22284;SDS011;11311;52.192;20.900;2023-03-29T14:23:56;2.53;;;1.90;;
22284;SDS011;11311;52.192;20.900;2023-03-29T14:26:28;3.38;;;2.10;;
22284;SDS011;11311;52.192;20.900;2023-03-29T14:29:01;3.47;;;2.45;;
22284;SDS011;11311;52.192;20.900;2023-03-29T14:31:31;3.45;;;2.60;;
22284;SDS011;11311;52.192;20.900;2023-03-29T14:34:02;2.95;;;2.50;;
22284;SDS011;11311;52.192;20.900;2023-03-29T14:36:34;3.75;;;2.85;;
22284;SDS011;11311;52.192;20.900;2023-03-29T14:39:07;4.03;;;3.08;;
22284;SDS011;11311;52.192;20.900;2023-03-29T14:41:39;5.18;;;3.38;;
22284;SDS011;11311;52.192;20.900;2023-03-29T14:44:14;4.65;;;3.25;;
22284;SDS011;11311;52.192;20.900;2023-03-29T14:46:44;5.30;;;2.75;;
22284;SDS011;11311;52.192;20.900;2023-03-29T14:49:15;3.10;;;2.67;;
22284;SDS011;11311;52.192;20.900;2023-03-29T14:54:16;4.00;;;2.78;;
22284;SDS011;11311;52.192;20.900;2023-03-29T14:56:47;4.13;;;3.22;;
22284;SDS011;11311;52.192;20.900;2023-03-29T14:59:24;6.17;;;3.40;;
22284;SDS011;11311;52.192;20.900;2023-03-29T15:01:55;5.57;;;4.32;;
22284;SDS011;11311;52.192;20.900;2023-03-29T15:04:30;4.30;;;3.17;;
22284;SDS011;11311;52.192;20.900;2023-03-29T15:07:00;5.15;;;3.05;;
22284;SDS011;11311;52.192;20.900;2023-03-29T15:09:31;4.10;;;3.38;;
22284;SDS011;11311;52.192;20.900;2023-03-29T15:12:01;4.78;;;3.63;;
22284;SDS011;11311;52.192;20.900;2023-03-29T15:14:32;7.20;;;3.58;;
22284;SDS011;11311;52.192;20.900;2023-03-29T15:17:03;4.10;;;3.13;;
22284;SDS011;11311;52.192;20.900;2023-03-29T15:19:34;7.70;;;3.50;;
22284;SDS011;11311;52.192;20.900;2023-03-29T15:22:03;8.88;;;3.85;;
22284;SDS011;11311;52.192;20.900;2023-03-29T15:24:40;6.25;;;3.60;;
22284;SDS011;11311;52.192;20.900;2023-03-29T15:27:13;6.45;;;3.97;;
22284;SDS011;11311;52.192;20.900;2023-03-29T15:29:45;4.45;;;3.17;;
22284;SDS011;11311;52.192;20.900;2023-03-29T15:32:23;8.52;;;3.50;;
22284;SDS011;11311;52.192;20.900;2023-03-29T15:34:59;6.07;;;4.07;;
22284;SDS011;11311;52.192;20.900;2023-03-29T15:37:31;11.23;;;4.10;;